createdAt,value
2023-06-20T00:03:07.516Z,19.30
2023-06-20T00:06:29.246Z,19.30
2023-06-20T00:09:52.237Z,19.30
2023-06-20T00:13:14.201Z,19.30
2023-06-20T00:16:35.558Z,19.30
2023-06-20T00:19:56.866Z,19.20
2023-06-20T00:23:18.429Z,19.20
2023-06-20T00:26:40.986Z,19.20
2023-06-20T00:30:02.503Z,19.10
2023-06-20T00:33:23.616Z,18.90
2023-06-20T00:36:45.130Z,18.90
2023-06-20T00:40:08.424Z,18.80
2023-06-20T00:43:31.038Z,18.90
2023-06-20T00:46:52.647Z,18.90
2023-06-20T00:50:14.061Z,18.90
2023-06-20T00:53:35.418Z,18.80
2023-06-20T00:56:56.734Z,18.70
2023-06-20T01:00:19.971Z,18.60
2023-06-20T01:03:41.726Z,18.60
2023-06-20T01:07:09.200Z,18.60
2023-06-20T01:10:40.715Z,18.70
2023-06-20T01:14:09.997Z,18.70
2023-06-20T01:17:41.814Z,18.70
2023-06-20T01:21:10.014Z,18.60
2023-06-20T01:24:38.016Z,18.60
2023-06-20T01:28:08.423Z,18.70
2023-06-20T01:31:33.121Z,18.60
2023-06-20T01:34:59.104Z,18.60
2023-06-20T01:38:25.567Z,18.50
2023-06-20T01:41:49.769Z,18.50
2023-06-20T01:45:13.352Z,18.40
2023-06-20T01:48:36.852Z,18.40
2023-06-20T01:51:59.015Z,18.40
2023-06-20T01:55:23.120Z,18.40
2023-06-20T01:58:47.349Z,18.40
2023-06-20T02:02:09.518Z,18.40
2023-06-20T02:05:33.285Z,18.20
2023-06-20T02:08:56.132Z,18.30
2023-06-20T02:12:18.730Z,18.30
2023-06-20T02:15:43.584Z,18.30
2023-06-20T02:19:04.795Z,18.30
2023-06-20T02:22:28.431Z,18.30
2023-06-20T02:25:50.797Z,18.30
2023-06-20T02:29:13.426Z,18.30
2023-06-20T02:32:38.692Z,18.30
2023-06-20T02:36:02.323Z,18.20
2023-06-20T02:39:24.720Z,18.20
2023-06-20T02:42:46.547Z,18.10
2023-06-20T02:46:14.682Z,18.00
2023-06-20T02:49:44.132Z,18.00
2023-06-20T02:53:16.440Z,18.00
2023-06-20T02:56:40.206Z,18.00
2023-06-20T03:00:10.669Z,18.00
2023-06-20T03:03:36.055Z,17.90
2023-06-20T03:07:00.668Z,17.90
2023-06-20T03:10:24.122Z,17.80
2023-06-20T03:13:45.573Z,17.90
2023-06-20T03:17:07.329Z,17.80
2023-06-20T03:20:30.056Z,17.80
2023-06-20T03:23:52.616Z,17.80
2023-06-20T03:27:14.126Z,17.80
2023-06-20T03:30:35.790Z,17.90
2023-06-20T03:33:57.499Z,17.90
2023-06-20T03:37:19.029Z,17.90
2023-06-20T03:40:41.877Z,18.00
2023-06-20T03:44:03.504Z,17.90
2023-06-20T03:47:24.732Z,17.90
2023-06-20T03:50:46.094Z,18.00
2023-06-20T03:54:07.613Z,18.00
2023-06-20T03:57:30.577Z,18.10
2023-06-20T04:00:52.075Z,18.10
2023-06-20T04:04:15.304Z,18.10
2023-06-20T04:07:37.103Z,18.20
2023-06-20T04:11:00.561Z,18.30
2023-06-20T04:14:24.280Z,18.30
2023-06-20T04:17:46.726Z,18.40
2023-06-20T04:21:08.691Z,18.40
2023-06-20T04:24:30.047Z,18.50
2023-06-20T04:27:55.106Z,18.60
2023-06-20T04:31:18.288Z,18.60
2023-06-20T04:34:39.675Z,18.70
2023-06-20T04:38:02.845Z,18.70
2023-06-20T04:41:24.373Z,18.80
2023-06-20T04:44:46.090Z,18.80
2023-06-20T04:48:08.862Z,18.90
2023-06-20T04:51:30.563Z,18.90
2023-06-20T04:54:52.122Z,18.90
2023-06-20T04:58:14.248Z,19.00
2023-06-20T05:01:35.729Z,19.00
2023-06-20T05:04:58.511Z,19.00
2023-06-20T05:08:20.215Z,19.20
2023-06-20T05:11:41.707Z,19.30
2023-06-20T05:15:02.950Z,19.40
2023-06-20T05:18:24.246Z,19.50
2023-06-20T05:21:46.917Z,19.50
2023-06-20T05:25:09.011Z,19.70
2023-06-20T05:28:30.516Z,19.90
2023-06-20T05:31:52.120Z,20.10
2023-06-20T05:35:13.807Z,20.30
2023-06-20T05:38:37.905Z,20.60
2023-06-20T05:41:59.655Z,20.70
2023-06-20T05:45:21.226Z,21.00
2023-06-20T05:48:42.474Z,21.30
2023-06-20T05:52:03.927Z,21.60
2023-06-20T05:55:27.029Z,21.90
2023-06-20T05:58:48.608Z,22.20
2023-06-20T06:02:10.103Z,22.30
2023-06-20T06:05:31.535Z,22.30
2023-06-20T06:08:53.095Z,22.30
2023-06-20T06:12:16.105Z,22.00
2023-06-20T06:15:37.409Z,21.90
2023-06-20T06:18:58.584Z,21.90
2023-06-20T06:22:21.308Z,22.00
2023-06-20T06:25:46.898Z,22.20
2023-06-20T06:29:09.720Z,22.20
2023-06-20T06:32:31.109Z,22.40
2023-06-20T06:35:52.640Z,22.60
2023-06-20T06:39:14.409Z,22.40
2023-06-20T06:42:35.929Z,22.50
2023-06-20T06:45:58.736Z,22.80
2023-06-20T06:49:20.051Z,23.40
2023-06-20T06:52:42.684Z,23.60
2023-06-20T06:56:04.004Z,23.90
2023-06-20T06:59:25.495Z,24.30
2023-06-20T07:02:48.397Z,24.50
2023-06-20T07:06:10.191Z,24.30
2023-06-20T07:09:31.662Z,24.20
2023-06-20T07:12:54.845Z,24.10
2023-06-20T07:16:16.609Z,24.10
2023-06-20T07:19:39.488Z,24.10
2023-06-20T07:23:00.935Z,24.10
2023-06-20T07:26:22.418Z,24.10
2023-06-20T07:29:43.992Z,24.10
2023-06-20T07:33:07.162Z,24.10
2023-06-20T07:36:30.355Z,24.20
2023-06-20T07:39:51.713Z,24.30
2023-06-20T07:43:13.068Z,24.20
2023-06-20T07:46:34.915Z,24.20
2023-06-20T07:49:56.447Z,24.20
2023-06-20T07:53:20.282Z,24.50
2023-06-20T07:56:41.900Z,24.60
2023-06-20T08:00:10.206Z,24.70
2023-06-20T08:03:31.738Z,24.80
2023-06-20T08:06:53.707Z,24.90
2023-06-20T08:10:16.476Z,24.90
2023-06-20T08:13:38.155Z,24.90
2023-06-20T08:17:00.211Z,24.80
2023-06-20T08:20:21.911Z,24.90
2023-06-20T08:23:43.601Z,25.10
2023-06-20T08:27:06.724Z,25.30
2023-06-20T08:30:28.260Z,25.40
2023-06-20T08:33:49.985Z,25.60
2023-06-20T08:37:11.744Z,25.60
2023-06-20T08:40:33.409Z,25.80
2023-06-20T08:43:56.270Z,25.80
2023-06-20T08:47:17.504Z,25.80
2023-06-20T08:50:39.706Z,25.80
2023-06-20T08:54:04.582Z,25.80
2023-06-20T08:57:25.969Z,25.70
2023-06-20T09:00:50.020Z,25.80
2023-06-20T09:04:12.885Z,25.70
2023-06-20T09:07:39.363Z,25.70
2023-06-20T09:11:07.308Z,25.80
2023-06-20T09:14:30.199Z,25.90
2023-06-20T09:17:54.192Z,25.80
2023-06-20T09:21:17.749Z,25.70
2023-06-20T09:24:44.264Z,25.80
2023-06-20T09:28:15.878Z,25.90
2023-06-20T09:31:45.026Z,26.10
2023-06-20T09:35:09.691Z,26.20
2023-06-20T09:38:31.991Z,26.30
2023-06-20T09:41:54.594Z,26.40
2023-06-20T09:45:17.828Z,26.30
2023-06-20T09:48:41.279Z,26.30
2023-06-20T09:52:07.371Z,26.40
2023-06-20T09:55:29.069Z,26.40
2023-06-20T09:58:52.201Z,26.50
2023-06-20T10:02:15.007Z,26.50
2023-06-20T10:05:38.220Z,26.60
2023-06-20T10:09:02.306Z,26.70
2023-06-20T10:12:24.253Z,26.80
2023-06-20T10:15:45.698Z,26.90
2023-06-20T10:19:19.194Z,27.10
2023-06-20T10:22:44.777Z,27.20
2023-06-20T10:26:10.127Z,27.20
2023-06-20T10:29:40.443Z,27.20
2023-06-20T10:33:13.195Z,26.90
2023-06-20T10:36:35.817Z,26.70
2023-06-20T10:39:58.173Z,26.80
2023-06-20T10:43:24.035Z,26.80
2023-06-20T10:46:48.244Z,26.70
2023-06-20T10:50:11.562Z,26.60
2023-06-20T10:53:33.540Z,26.40
2023-06-20T10:56:54.859Z,26.40
2023-06-20T11:00:19.986Z,26.40
2023-06-20T11:03:42.858Z,26.30
2023-06-20T11:07:07.786Z,26.10
2023-06-20T11:10:30.938Z,26.10
2023-06-20T11:13:52.330Z,26.00
2023-06-20T11:17:15.307Z,26.00
2023-06-20T11:20:40.342Z,25.90
2023-06-20T11:24:02.633Z,26.00
2023-06-20T11:27:25.547Z,26.00
2023-06-20T11:30:48.564Z,26.10
2023-06-20T11:34:13.376Z,26.20
2023-06-20T11:37:34.900Z,26.30
2023-06-20T11:41:05.494Z,26.20
2023-06-20T11:44:28.457Z,26.30
2023-06-20T11:47:50.005Z,26.50
2023-06-20T11:51:14.472Z,26.60
2023-06-20T11:54:48.560Z,26.60
2023-06-20T11:58:10.859Z,26.60
2023-06-20T12:01:33.995Z,26.50
2023-06-20T12:04:59.539Z,26.60
2023-06-20T12:08:23.178Z,26.80
2023-06-20T12:11:48.531Z,26.80
2023-06-20T12:15:12.908Z,26.80
2023-06-20T12:18:34.066Z,26.90
2023-06-20T12:21:55.793Z,26.90
2023-06-20T12:25:18.444Z,27.00
2023-06-20T12:28:42.126Z,26.90
2023-06-20T12:32:03.453Z,26.90
2023-06-20T12:35:25.077Z,27.00
2023-06-20T12:38:46.585Z,27.00
2023-06-20T12:42:10.633Z,27.00
2023-06-20T12:45:32.006Z,26.90
2023-06-20T12:48:53.466Z,26.80
2023-06-20T12:52:14.896Z,26.90
2023-06-20T12:55:36.513Z,26.70
2023-06-20T12:59:01.527Z,26.80
2023-06-20T13:02:24.499Z,27.00
2023-06-20T13:05:46.228Z,27.10
2023-06-20T13:09:07.802Z,27.40
2023-06-20T13:12:29.109Z,27.70
2023-06-20T13:15:51.789Z,28.30
2023-06-20T13:19:15.358Z,28.80
2023-06-20T13:22:36.951Z,29.10
2023-06-20T13:25:58.215Z,29.10
2023-06-20T13:29:19.774Z,29.20
2023-06-20T13:32:42.509Z,28.70
2023-06-20T13:36:04.475Z,28.80
2023-06-20T13:39:30.588Z,28.70
2023-06-20T13:42:53.681Z,28.60
2023-06-20T13:46:15.122Z,28.40
2023-06-20T13:49:38.280Z,28.60
2023-06-20T13:52:59.576Z,28.50
2023-06-20T13:56:21.314Z,28.60
2023-06-20T13:59:44.706Z,28.80
2023-06-20T14:03:06.924Z,28.60
2023-06-20T14:06:30.543Z,28.50
2023-06-20T14:09:52.159Z,28.50
2023-06-20T14:13:13.968Z,28.40
2023-06-20T14:16:35.453Z,28.60
2023-06-20T14:19:56.881Z,28.60
2023-06-20T14:23:19.658Z,28.50
2023-06-20T14:26:41.518Z,28.40
2023-06-20T14:30:02.786Z,28.40
2023-06-20T14:33:25.628Z,28.40
2023-06-20T14:36:47.428Z,28.30
2023-06-20T14:40:11.212Z,28.30
2023-06-20T14:43:32.913Z,28.40
2023-06-20T14:46:54.513Z,28.50
2023-06-20T14:50:16.337Z,28.50
2023-06-20T14:53:37.580Z,28.50
2023-06-20T14:57:00.457Z,28.40
2023-06-20T15:00:22.287Z,28.50
2023-06-20T15:03:43.915Z,28.30
2023-06-20T15:07:06.023Z,28.20
2023-06-20T15:10:29.415Z,28.20
2023-06-20T15:13:52.425Z,28.20
2023-06-20T15:17:14.015Z,28.30
2023-06-20T15:20:35.997Z,28.30
2023-06-20T15:23:57.616Z,28.40
2023-06-20T15:27:19.290Z,28.40
2023-06-20T15:30:42.172Z,28.50
2023-06-20T15:34:03.913Z,28.50
2023-06-20T15:37:25.573Z,28.40
2023-06-20T15:40:46.976Z,28.30
2023-06-20T15:44:08.203Z,28.20
2023-06-20T15:47:30.980Z,28.20
2023-06-20T15:50:52.717Z,28.30
2023-06-20T15:54:14.011Z,28.30
2023-06-20T15:57:35.567Z,28.20
2023-06-20T16:00:57.174Z,28.10
2023-06-20T16:04:19.833Z,28.00
2023-06-20T16:07:40.943Z,28.00
2023-06-20T16:11:02.553Z,28.00
2023-06-20T16:14:24.206Z,28.10
2023-06-20T16:17:45.756Z,28.10
2023-06-20T16:21:09.822Z,28.20
2023-06-20T16:24:32.636Z,28.20
2023-06-20T16:27:54.289Z,28.20
2023-06-20T16:31:15.710Z,28.20
2023-06-20T16:34:37.408Z,28.10
2023-06-20T16:38:00.335Z,28.10
2023-06-20T16:41:21.810Z,28.10
2023-06-20T16:44:43.217Z,27.90
2023-06-20T16:48:04.562Z,27.80
2023-06-20T16:51:26.386Z,27.80
2023-06-20T16:54:49.106Z,27.80
2023-06-20T16:58:10.654Z,27.60
2023-06-20T17:01:32.171Z,27.50
2023-06-20T17:04:53.913Z,27.40
2023-06-20T17:08:15.307Z,27.20
2023-06-20T17:11:38.035Z,27.10
2023-06-20T17:14:59.783Z,27.10
2023-06-20T17:18:21.924Z,27.00
2023-06-20T17:21:43.158Z,27.10
2023-06-20T17:25:05.006Z,27.00
2023-06-20T17:28:27.902Z,27.00
2023-06-20T17:31:52.197Z,27.00
2023-06-20T17:35:13.644Z,27.00
2023-06-20T17:38:35.069Z,27.00
2023-06-20T17:41:56.748Z,27.00
2023-06-20T17:45:19.584Z,27.00
2023-06-20T17:48:42.631Z,27.00
2023-06-20T17:52:06.960Z,26.80
2023-06-20T17:55:28.838Z,26.80
2023-06-20T17:58:53.441Z,26.80
2023-06-20T18:02:17.739Z,26.80
2023-06-20T18:05:39.264Z,26.80
2023-06-20T18:09:00.535Z,26.80
2023-06-20T18:12:22.072Z,26.70
2023-06-20T18:15:43.488Z,26.70
2023-06-20T18:19:06.592Z,26.60
2023-06-20T18:22:27.875Z,26.60
2023-06-20T18:25:49.503Z,26.60
2023-06-20T18:29:11.037Z,26.50
2023-06-20T18:32:32.316Z,26.50
2023-06-20T18:35:55.299Z,26.50
2023-06-20T18:39:16.933Z,26.40
2023-06-20T18:42:38.430Z,26.40
2023-06-20T18:45:59.995Z,26.40
2023-06-20T18:49:21.412Z,26.30
2023-06-20T18:52:44.214Z,26.30
2023-06-20T18:56:05.625Z,26.20
2023-06-20T18:59:26.989Z,26.10
2023-06-20T19:02:48.506Z,26.00
2023-06-20T19:06:10.283Z,25.90
2023-06-20T19:09:37.186Z,25.80
2023-06-20T19:12:58.738Z,25.70
2023-06-20T19:16:22.601Z,25.60
2023-06-20T19:19:44.496Z,25.50
2023-06-20T19:23:06.551Z,25.40
2023-06-20T19:26:29.601Z,25.40
2023-06-20T19:29:50.892Z,25.30
2023-06-20T19:33:12.264Z,25.30
2023-06-20T19:36:34.332Z,25.20
2023-06-20T19:39:55.746Z,25.10
2023-06-20T19:43:18.552Z,25.00
2023-06-20T19:46:40.747Z,25.00
2023-06-20T19:50:02.220Z,24.90
2023-06-20T19:53:23.586Z,24.80
2023-06-20T19:56:44.918Z,24.70
2023-06-20T20:00:08.963Z,24.70
2023-06-20T20:03:30.433Z,24.60
2023-06-20T20:06:51.995Z,24.50
2023-06-20T20:10:13.237Z,24.40
2023-06-20T20:13:34.415Z,24.40
2023-06-20T20:16:58.123Z,24.30
2023-06-20T20:20:19.462Z,24.30
2023-06-20T20:23:44.295Z,24.20
2023-06-20T20:27:08.231Z,24.10
2023-06-20T20:30:30.037Z,24.10
2023-06-20T20:33:53.031Z,24.00
2023-06-20T20:37:14.465Z,23.90
2023-06-20T20:40:35.853Z,23.90
2023-06-20T20:43:57.279Z,23.80
2023-06-20T20:47:18.940Z,23.70
2023-06-20T20:50:41.924Z,23.60
2023-06-20T20:54:03.644Z,23.60
2023-06-20T20:57:25.427Z,23.60
2023-06-20T21:00:47.013Z,23.50
2023-06-20T21:04:09.198Z,23.40
2023-06-20T21:07:31.818Z,23.40
2023-06-20T21:10:53.517Z,23.30
2023-06-20T21:14:14.777Z,23.30
2023-06-20T21:17:36.271Z,23.20
2023-06-20T21:20:57.726Z,23.10
2023-06-20T21:24:20.733Z,23.20
2023-06-20T21:27:42.394Z,23.20
2023-06-20T21:31:04.354Z,23.10
2023-06-20T21:34:25.976Z,23.00
2023-06-20T21:37:47.526Z,23.00
2023-06-20T21:41:10.196Z,22.90
2023-06-20T21:44:32.016Z,22.90
2023-06-20T21:47:53.748Z,22.90
2023-06-20T21:51:15.661Z,22.90
2023-06-20T21:54:37.175Z,22.80
2023-06-20T21:58:00.055Z,22.80
2023-06-20T22:01:21.547Z,22.70
2023-06-20T22:04:43.053Z,22.70
2023-06-20T22:08:04.310Z,22.70
2023-06-20T22:11:25.951Z,22.70
2023-06-20T22:14:48.822Z,22.70
2023-06-20T22:18:10.289Z,22.60
2023-06-20T22:21:31.937Z,22.60
2023-06-20T22:24:53.608Z,22.60
2023-06-20T22:28:15.060Z,22.50
2023-06-20T22:31:38.502Z,22.50
2023-06-20T22:35:00.214Z,22.50
2023-06-20T22:38:22.130Z,22.60
2023-06-20T22:41:43.688Z,22.60
2023-06-20T22:45:06.008Z,22.60
2023-06-20T22:48:28.813Z,22.60
2023-06-20T22:51:52.756Z,22.60
2023-06-20T22:55:15.326Z,22.60
2023-06-20T22:58:36.964Z,22.70
2023-06-20T23:01:59.521Z,22.70
2023-06-20T23:05:23.407Z,22.70
2023-06-20T23:08:45.102Z,22.80
2023-06-20T23:12:07.307Z,22.90
2023-06-20T23:15:28.781Z,22.60
2023-06-20T23:18:50.540Z,21.10
2023-06-20T23:22:13.724Z,20.00
2023-06-20T23:25:41.265Z,19.50
2023-06-20T23:29:02.897Z,19.20
2023-06-20T23:32:27.316Z,19.10
2023-06-20T23:35:49.159Z,19.00
2023-06-20T23:39:11.816Z,18.90
2023-06-20T23:42:35.932Z,18.90
2023-06-20T23:45:59.540Z,18.80
2023-06-20T23:49:21.957Z,18.80
2023-06-20T23:52:43.740Z,18.80
2023-06-20T23:56:06.449Z,18.80
2023-06-20T23:59:28.004Z,18.70
